Time;durP1;ratioP1;P1;durP2;ratioP2;P2;SDS_P1;SDS_P2;PMS_P1;PMS_P2;Temp;Humidity;BMP_temperature;BMP_pressure;BME280_temperature;BME280_humidity;BME280_pressure;Samples;Min_cycle;Max_cycle;Signal;HPM_P1;HPM_P2
2022/04/28 00:01:50;;;;;;;8.53;4.33;;;;;;;;;;5041608;28;20281;-65
2022/04/28 00:04:16;;;;;;;6.23;4.33;;;;;;;;;;5039076;28;20206;-63
2022/04/28 00:06:42;;;;;;;7.57;4.23;;;;;;;;;;5057098;28;20682;-65
2022/04/28 00:09:08;;;;;;;5.30;4.10;;;;;;;;;;5038385;28;20620;-63
2022/04/28 00:11:34;;;;;;;6.10;4.20;;;;;;;;;;5039241;28;20182;-64
2022/04/28 00:14:00;;;;;;;5.60;4.30;;;;;;;;;;5056711;28;20187;-64
2022/04/28 00:16:27;;;;;;;5.73;4.20;;;;;;;;;;5055939;28;20550;-64
2022/04/28 00:18:53;;;;;;;5.13;4.60;;;;;;;;;;5037926;28;20221;-64
2022/04/28 00:21:19;;;;;;;6.23;4.50;;;;;;;;;;5038041;28;20206;-64
2022/04/28 00:23:45;;;;;;;6.90;4.87;;;;;;;;;;5056626;28;20658;-64
2022/04/28 00:26:11;;;;;;;9.30;4.57;;;;;;;;;;5038051;28;20239;-64
2022/04/28 00:28:36;;;;;;;5.53;4.50;;;;;;;;;;5037935;28;20202;-64
2022/04/28 00:31:02;;;;;;;8.50;4.63;;;;;;;;;;5055906;28;20174;-64
2022/04/28 00:33:28;;;;;;;6.80;4.47;;;;;;;;;;5055751;28;20178;-64
2022/04/28 00:35:55;;;;;;;8.07;4.83;;;;;;;;;;5037837;28;20179;-64
2022/04/28 00:38:21;;;;;;;10.80;5.27;;;;;;;;;;5054915;28;20202;-64
2022/04/28 00:40:47;;;;;;;11.13;4.97;;;;;;;;;;5038136;28;20174;-64
2022/04/28 00:43:19;;;;;;;7.63;5.20;;;;;;;;;;5055942;28;20170;-63
2022/04/28 00:45:48;;;;;;;7.10;4.83;;;;;;;;;;5055787;28;20252;-64
2022/04/28 00:51:01;;;;;;;10.63;5.27;;;;;;;;;;5058392;28;20189;-64
2022/04/28 00:53:29;;;;;;;8.40;4.87;;;;;;;;;;5044154;28;20170;-64
2022/04/28 00:55:55;;;;;;;7.83;5.07;;;;;;;;;;5074890;28;20175;-65
2022/04/28 00:58:21;;;;;;;9.97;5.37;;;;;;;;;;5075992;28;20191;-65
2022/04/28 01:00:47;;;;;;;8.90;4.83;;;;;;;;;;5075037;28;20230;-66
2022/04/28 01:03:13;;;;;;;7.33;4.57;;;;;;;;;;5057137;28;20179;-65
2022/04/28 01:05:40;;;;;;;10.20;4.90;;;;;;;;;;5055166;28;20221;-65
2022/04/28 01:08:09;;;;;;;9.07;5.07;;;;;;;;;;5068909;28;20677;-65
2022/04/28 01:10:35;;;;;;;8.13;5.07;;;;;;;;;;5037523;28;20185;-64
2022/04/28 01:13:01;;;;;;;7.83;5.33;;;;;;;;;;5037007;28;20269;-64
2022/04/28 01:15:27;;;;;;;7.40;5.17;;;;;;;;;;5054948;28;20214;-64
2022/04/28 01:17:53;;;;;;;7.47;5.50;;;;;;;;;;5054487;28;20236;-64
2022/04/28 01:20:19;;;;;;;8.27;5.93;;;;;;;;;;5036910;28;20669;-64
2022/04/28 01:22:46;;;;;;;8.73;5.17;;;;;;;;;;5036694;28;20635;-66
2022/04/28 01:25:12;;;;;;;10.53;5.63;;;;;;;;;;5054488;28;20222;-65
2022/04/28 01:27:38;;;;;;;6.33;5.03;;;;;;;;;;5054316;28;20198;-64
2022/04/28 01:30:10;;;;;;;9.00;5.50;;;;;;;;;;5054878;28;20171;-64
2022/04/28 01:32:36;;;;;;;7.63;5.57;;;;;;;;;;5036519;28;20173;-65
2022/04/28 01:35:03;;;;;;;6.97;5.47;;;;;;;;;;5036740;28;20183;-65
2022/04/28 01:37:29;;;;;;;7.33;5.90;;;;;;;;;;5036368;28;20186;-65
2022/04/28 01:39:56;;;;;;;15.77;6.57;;;;;;;;;;5054534;28;20198;-65
2022/04/28 01:42:22;;;;;;;7.07;5.50;;;;;;;;;;5036603;28;20182;-65
2022/04/28 01:44:48;;;;;;;9.57;5.87;;;;;;;;;;5054513;28;20229;-65
2022/04/28 01:47:14;;;;;;;9.10;5.77;;;;;;;;;;5054443;28;20646;-65
2022/04/28 01:49:40;;;;;;;9.97;6.37;;;;;;;;;;5053693;28;20193;-65
2022/04/28 01:55:00;;;;;;;9.67;5.67;;;;;;;;;;5054347;28;20539;-65
2022/04/28 01:57:30;;;;;;;8.00;5.80;;;;;;;;;;5054255;28;20542;-65
2022/04/28 01:59:58;;;;;;;9.60;6.77;;;;;;;;;;5036340;28;20197;-65
2022/04/28 02:02:24;;;;;;;9.57;6.00;;;;;;;;;;5036245;28;20259;-65
2022/04/28 02:04:50;;;;;;;8.63;6.20;;;;;;;;;;5053878;28;20762;-65
2022/04/28 02:07:16;;;;;;;9.00;6.20;;;;;;;;;;5054098;28;20189;-65
2022/04/28 02:09:43;;;;;;;9.73;6.33;;;;;;;;;;5054109;28;20170;-65
2022/04/28 02:12:09;;;;;;;8.73;5.90;;;;;;;;;;5036103;28;20186;-65
2022/04/28 02:14:36;;;;;;;7.77;5.93;;;;;;;;;;5054000;28;20197;-65
2022/04/28 02:17:02;;;;;;;12.97;7.10;;;;;;;;;;5035942;28;20179;-65
2022/04/28 02:19:28;;;;;;;8.13;6.03;;;;;;;;;;5053936;28;20210;-66
2022/04/28 02:21:54;;;;;;;9.13;6.43;;;;;;;;;;5054210;28;20187;-65
2022/04/28 02:24:21;;;;;;;12.77;6.33;;;;;;;;;;5036327;28;20202;-65
2022/04/28 02:26:47;;;;;;;8.40;6.13;;;;;;;;;;5036251;28;20183;-65
2022/04/28 02:29:13;;;;;;;12.73;6.63;;;;;;;;;;5036200;28;20275;-65
2022/04/28 02:31:39;;;;;;;8.90;6.73;;;;;;;;;;5035919;28;20188;-65
2022/04/28 02:34:05;;;;;;;10.73;6.47;;;;;;;;;;5054287;28;20182;-65
2022/04/28 02:36:31;;;;;;;11.00;6.57;;;;;;;;;;5035943;28;20182;-65
2022/04/28 02:38:57;;;;;;;9.20;6.70;;;;;;;;;;5054137;28;20273;-65
2022/04/28 02:41:23;;;;;;;9.87;6.70;;;;;;;;;;5054395;28;20650;-65
2022/04/28 02:43:49;;;;;;;10.73;6.77;;;;;;;;;;5036102;28;20182;-66
2022/04/28 02:46:15;;;;;;;10.50;7.03;;;;;;;;;;5036750;28;20178;-66
2022/04/28 02:48:41;;;;;;;9.53;7.17;;;;;;;;;;5056700;28;20531;-65
2022/04/28 02:51:07;;;;;;;11.00;6.93;;;;;;;;;;5046991;28;20185;-65
2022/04/28 02:53:34;;;;;;;10.30;6.93;;;;;;;;;;5064952;28;20171;-65
2022/04/28 02:56:00;;;;;;;10.20;7.07;;;;;;;;;;5047241;28;20179;-65
2022/04/28 02:58:26;;;;;;;14.43;7.27;;;;;;;;;;5039847;28;20233;-65
2022/04/28 03:00:52;;;;;;;12.43;7.00;;;;;;;;;;5036852;28;20551;-65
2022/04/28 03:03:18;;;;;;;9.30;6.50;;;;;;;;;;5057757;28;20265;-65
2022/04/28 03:11:14;;;;;;;9.73;6.87;;;;;;;;;;5057257;28;20646;-65
2022/04/28 03:13:40;;;;;;;11.00;6.90;;;;;;;;;;5039190;28;20557;-65
2022/04/28 03:16:06;;;;;;;12.27;6.97;;;;;;;;;;5039342;28;20182;-65
2022/04/28 03:18:33;;;;;;;11.90;7.20;;;;;;;;;;5057182;28;20271;-65
2022/04/28 03:20:59;;;;;;;13.67;7.27;;;;;;;;;;5056987;28;20210;-65
2022/04/28 03:23:25;;;;;;;9.23;6.23;;;;;;;;;;5039087;28;20270;-65
2022/04/28 03:25:51;;;;;;;12.73;7.97;;;;;;;;;;5039024;28;20285;-65
2022/04/28 03:28:18;;;;;;;9.23;7.33;;;;;;;;;;5039092;28;20198;-65
2022/04/28 03:30:46;;;;;;;12.37;7.63;;;;;;;;;;5056696;28;20178;-65
2022/04/28 03:33:12;;;;;;;10.53;7.17;;;;;;;;;;5039063;28;20656;-65
2022/04/28 03:35:38;;;;;;;12.07;7.50;;;;;;;;;;5057314;28;20186;-65
2022/04/28 03:38:04;;;;;;;11.47;8.10;;;;;;;;;;5056832;28;20299;-65
2022/04/28 03:40:30;;;;;;;12.67;8.17;;;;;;;;;;5038608;28;20672;-65
2022/04/28 03:42:57;;;;;;;12.03;7.17;;;;;;;;;;5038656;28;20182;-65
2022/04/28 03:45:25;;;;;;;10.90;7.47;;;;;;;;;;5038339;28;20202;-65
2022/04/28 03:47:51;;;;;;;14.30;7.80;;;;;;;;;;5038605;28;20324;-65
2022/04/28 03:50:17;;;;;;;11.17;8.10;;;;;;;;;;5041316;28;20668;-65
2022/04/28 03:52:43;;;;;;;11.97;7.63;;;;;;;;;;5040808;28;20213;-65
2022/04/28 03:55:09;;;;;;;13.37;7.60;;;;;;;;;;5040732;28;20187;-66
2022/04/28 03:57:36;;;;;;;14.20;8.03;;;;;;;;;;5057584;28;20182;-65
2022/04/28 04:00:03;;;;;;;11.80;6.97;;;;;;;;;;5039442;28;20189;-65
2022/04/28 04:02:29;;;;;;;11.00;7.70;;;;;;;;;;5039260;28;20186;-65
2022/04/28 04:04:55;;;;;;;13.50;7.50;;;;;;;;;;5056123;28;20202;-65
2022/04/28 04:07:21;;;;;;;8.93;7.10;;;;;;;;;;5056139;28;20253;-64
2022/04/28 04:09:47;;;;;;;11.97;7.00;;;;;;;;;;5038263;28;20230;-65
2022/04/28 04:12:13;;;;;;;15.13;8.67;;;;;;;;;;5038184;28;20182;-65
2022/04/28 04:14:39;;;;;;;14.50;8.63;;;;;;;;;;5055251;28;20512;-65
2022/04/28 04:17:05;;;;;;;10.53;8.17;;;;;;;;;;5056043;28;20210;-65
2022/04/28 04:19:31;;;;;;;14.87;8.07;;;;;;;;;;5055722;28;20213;-65
2022/04/28 04:21:58;;;;;;;15.07;8.13;;;;;;;;;;5038113;28;20277;-65
2022/04/28 04:24:24;;;;;;;10.27;7.50;;;;;;;;;;5037876;28;20207;-65
2022/04/28 04:26:50;;;;;;;12.97;8.17;;;;;;;;;;5056328;28;20182;-65
2022/04/28 04:29:16;;;;;;;13.80;7.53;;;;;;;;;;5055874;28;20194;-65
2022/04/28 04:34:27;;;;;;;10.40;7.63;;;;;;;;;;5056048;28;20174;-65
2022/04/28 04:36:52;;;;;;;14.07;8.43;;;;;;;;;;5056245;28;20563;-65
2022/04/28 04:39:18;;;;;;;13.27;7.67;;;;;;;;;;5055655;28;20551;-65
2022/04/28 04:41:44;;;;;;;12.30;8.07;;;;;;;;;;5037914;28;20210;-65
2022/04/28 04:44:13;;;;;;;14.83;7.60;;;;;;;;;;5037609;28;20202;-65
2022/04/28 04:46:40;;;;;;;15.43;8.30;;;;;;;;;;5037521;28;20235;-66
2022/04/28 04:49:06;;;;;;;14.83;7.87;;;;;;;;;;5055346;28;20217;-65
2022/04/28 04:51:31;;;;;;;12.13;8.27;;;;;;;;;;5037631;28;20178;-65
2022/04/28 04:53:57;;;;;;;12.33;8.70;;;;;;;;;;5055737;28;20200;-65
2022/04/28 04:56:23;;;;;;;14.67;7.30;;;;;;;;;;5055853;28;20554;-66
2022/04/28 04:58:50;;;;;;;12.43;7.73;;;;;;;;;;5055733;28;20685;-65
2022/04/28 05:01:16;;;;;;;11.00;7.77;;;;;;;;;;5055508;28;20179;-65
2022/04/28 05:03:42;;;;;;;10.17;7.07;;;;;;;;;;5054994;28;20179;-65
2022/04/28 05:06:08;;;;;;;15.27;7.57;;;;;;;;;;5055007;28;20170;-66
2022/04/28 05:08:34;;;;;;;11.13;8.20;;;;;;;;;;5055259;28;20214;-65
2022/04/28 05:11:00;;;;;;;11.73;7.23;;;;;;;;;;5055621;28;20174;-65
2022/04/28 05:13:26;;;;;;;11.67;7.17;;;;;;;;;;5055940;28;20236;-64
2022/04/28 05:15:52;;;;;;;11.83;8.17;;;;;;;;;;5036895;28;20592;-65
2022/04/28 05:18:18;;;;;;;15.53;8.97;;;;;;;;;;5055010;28;20214;-65
2022/04/28 05:20:44;;;;;;;14.27;7.97;;;;;;;;;;5054800;28;20289;-65
2022/04/28 05:23:10;;;;;;;14.60;8.17;;;;;;;;;;5037261;28;20189;-65
2022/04/28 05:25:36;;;;;;;14.50;8.30;;;;;;;;;;5054689;28;20198;-65
2022/04/28 05:28:02;;;;;;;13.93;8.60;;;;;;;;;;5054784;28;20205;-65
2022/04/28 05:30:28;;;;;;;12.50;8.53;;;;;;;;;;5037294;28;20325;-65
2022/04/28 05:32:54;;;;;;;16.10;8.50;;;;;;;;;;5055045;28;20212;-64
2022/04/28 05:35:20;;;;;;;10.87;7.80;;;;;;;;;;5054932;28;20248;-65
2022/04/28 05:37:46;;;;;;;13.77;7.70;;;;;;;;;;5054338;28;20747;-65
2022/04/28 05:40:16;;;;;;;12.93;7.70;;;;;;;;;;5054657;28;20218;-65
2022/04/28 05:45:42;;;;;;;11.90;7.73;;;;;;;;;;5054189;28;20209;-65
2022/04/28 05:48:11;;;;;;;11.50;7.97;;;;;;;;;;5036267;28;20577;-66
2022/04/28 05:50:41;;;;;;;14.03;7.60;;;;;;;;;;5054270;28;20178;-65
2022/04/28 05:53:07;;;;;;;11.23;8.00;;;;;;;;;;5054257;28;20171;-65
2022/04/28 05:55:33;;;;;;;11.43;7.97;;;;;;;;;;5053891;28;20184;-65
2022/04/28 05:58:00;;;;;;;9.20;7.27;;;;;;;;;;5053966;28;20221;-65
2022/04/28 06:00:30;;;;;;;12.23;7.50;;;;;;;;;;5036155;28;20729;-66
2022/04/28 06:02:56;;;;;;;13.13;7.97;;;;;;;;;;5054010;28;20186;-66
2022/04/28 06:05:22;;;;;;;11.40;7.10;;;;;;;;;;5036162;28;20229;-65
2022/04/28 06:07:51;;;;;;;14.00;7.80;;;;;;;;;;5054539;28;20202;-66
2022/04/28 06:10:18;;;;;;;13.03;7.00;;;;;;;;;;5054479;28;20181;-66
2022/04/28 06:12:44;;;;;;;10.23;6.87;;;;;;;;;;5054569;28;20249;-66
2022/04/28 06:15:10;;;;;;;13.20;7.57;;;;;;;;;;5054663;28;20642;-68
2022/04/28 06:17:36;;;;;;;13.57;7.80;;;;;;;;;;5054214;28;20186;-67
2022/04/28 06:20:03;;;;;;;11.97;7.17;;;;;;;;;;5036469;28;20174;-66
2022/04/28 06:22:29;;;;;;;10.40;7.17;;;;;;;;;;5036553;28;20190;-65
2022/04/28 06:24:55;;;;;;;12.43;7.13;;;;;;;;;;5054418;28;20205;-65
2022/04/28 06:27:22;;;;;;;9.87;7.70;;;;;;;;;;5036377;28;20178;-65
2022/04/28 06:29:49;;;;;;;13.17;6.47;;;;;;;;;;5036535;28;20188;-65
2022/04/28 06:32:18;;;;;;;14.40;7.37;;;;;;;;;;5054299;28;20174;-65
2022/04/28 06:34:44;;;;;;;11.73;7.73;;;;;;;;;;5036208;28;20236;-65
2022/04/28 06:37:10;;;;;;;10.90;7.43;;;;;;;;;;5056272;28;20182;-65
2022/04/28 06:39:37;;;;;;;9.73;7.20;;;;;;;;;;5040307;28;20210;-65
2022/04/28 06:42:03;;;;;;;11.53;7.00;;;;;;;;;;5040495;28;20260;-66
2022/04/28 06:44:29;;;;;;;15.10;8.07;;;;;;;;;;5058244;28;20213;-64
2022/04/28 06:46:55;;;;;;;12.73;7.30;;;;;;;;;;5058102;28;20174;-66
2022/04/28 06:49:21;;;;;;;16.10;7.17;;;;;;;;;;5059028;28;20194;-65
2022/04/28 06:51:47;;;;;;;11.43;7.30;;;;;;;;;;5058562;28;20638;-65
2022/04/28 06:54:13;;;;;;;13.83;6.83;;;;;;;;;;5058654;28;20773;-65
2022/04/28 06:56:39;;;;;;;11.93;7.77;;;;;;;;;;5069424;28;20209;-65
2022/04/28 06:59:05;;;;;;;12.90;7.33;;;;;;;;;;5074502;28;20257;-65
2022/04/28 07:01:32;;;;;;;11.33;7.53;;;;;;;;;;5068243;28;20179;-66
2022/04/28 07:03:57;;;;;;;12.60;7.93;;;;;;;;;;5066059;28;20178;-65
2022/04/28 07:06:24;;;;;;;14.03;7.80;;;;;;;;;;5061728;28;20650;-65
2022/04/28 07:08:49;;;;;;;14.73;7.37;;;;;;;;;;5040538;28;20224;-65
2022/04/28 07:11:15;;;;;;;10.23;7.53;;;;;;;;;;5058011;28;20257;-65
2022/04/28 07:13:41;;;;;;;8.30;7.10;;;;;;;;;;5040363;28;20174;-65
2022/04/28 07:16:08;;;;;;;12.63;7.30;;;;;;;;;;5058076;28;20183;-65
2022/04/28 07:18:34;;;;;;;11.77;6.93;;;;;;;;;;5057163;28;20210;-65
2022/04/28 07:21:03;;;;;;;10.23;7.53;;;;;;;;;;5039473;28;20228;-64
2022/04/28 07:23:30;;;;;;;13.53;7.60;;;;;;;;;;5039344;28;20190;-65
2022/04/28 07:25:56;;;;;;;10.73;7.47;;;;;;;;;;5057515;28;20210;-65
2022/04/28 07:28:22;;;;;;;10.47;7.07;;;;;;;;;;5058316;28;20697;-65
2022/04/28 07:30:48;;;;;;;12.77;7.73;;;;;;;;;;5058176;28;20175;-65
2022/04/28 07:33:14;;;;;;;13.03;7.03;;;;;;;;;;5057372;28;20661;-64
2022/04/28 07:35:40;;;;;;;12.87;7.90;;;;;;;;;;5057389;28;20635;-65
2022/04/28 07:38:07;;;;;;;10.23;7.30;;;;;;;;;;5039848;28;20216;-67
2022/04/28 07:40:33;;;;;;;9.10;6.83;;;;;;;;;;5057936;28;20182;-65
2022/04/28 07:42:59;;;;;;;11.53;7.90;;;;;;;;;;5057248;28;20198;-65
2022/04/28 07:45:25;;;;;;;10.97;7.27;;;;;;;;;;5056899;28;20600;-65
2022/04/28 07:47:51;;;;;;;12.70;7.53;;;;;;;;;;5056098;28;20288;-65
2022/04/28 07:50:17;;;;;;;12.77;7.03;;;;;;;;;;5082352;22;20713;-66
2022/04/28 07:52:44;;;;;;;13.73;7.73;;;;;;;;;;5038911;28;20174;-66
2022/04/28 07:55:10;;;;;;;11.63;7.80;;;;;;;;;;5056583;28;20175;-66
2022/04/28 07:57:37;;;;;;;12.60;7.80;;;;;;;;;;5056274;28;20171;-67
2022/04/28 08:00:07;;;;;;;15.43;7.70;;;;;;;;;;5056075;28;20729;-66
2022/04/28 08:02:36;;;;;;;11.27;7.73;;;;;;;;;;5037952;28;20257;-66
2022/04/28 08:05:02;;;;;;;12.10;7.40;;;;;;;;;;5055863;28;20204;-66
2022/04/28 08:07:28;;;;;;;14.33;8.33;;;;;;;;;;5055669;28;20594;-65
2022/04/28 08:09:54;;;;;;;11.33;7.63;;;;;;;;;;5055539;28;20195;-66
2022/04/28 08:12:20;;;;;;;11.40;7.77;;;;;;;;;;5037679;28;20681;-66
2022/04/28 08:14:46;;;;;;;11.27;7.77;;;;;;;;;;5037746;28;20183;-66
2022/04/28 08:17:12;;;;;;;13.00;8.80;;;;;;;;;;5037679;28;20187;-66
2022/04/28 08:19:38;;;;;;;13.73;7.87;;;;;;;;;;5038091;28;20267;-67
2022/04/28 08:22:04;;;;;;;10.97;7.37;;;;;;;;;;5055599;28;20178;-66
2022/04/28 08:24:30;;;;;;;11.50;7.87;;;;;;;;;;5055555;28;20296;-66
2022/04/28 08:26:56;;;;;;;12.00;8.63;;;;;;;;;;5055515;28;20664;-67
2022/04/28 08:29:23;;;;;;;12.90;7.73;;;;;;;;;;5055550;28;20199;-66
2022/04/28 08:31:49;;;;;;;13.67;8.13;;;;;;;;;;5037318;28;20181;-66
2022/04/28 08:34:17;;;;;;;14.67;7.87;;;;;;;;;;5037377;28;20658;-66
2022/04/28 08:36:44;;;;;;;15.37;8.67;;;;;;;;;;5055213;28;20181;-65
2022/04/28 08:39:10;;;;;;;13.30;8.00;;;;;;;;;;5036852;28;20178;-66
2022/04/28 08:41:45;;;;;;;11.77;8.47;;;;;;;;;;5055094;28;20643;-66
2022/04/28 08:44:16;;;;;;;13.87;8.73;;;;;;;;;;5055674;28;20198;-66
2022/04/28 08:46:51;;;;;;;12.03;7.73;;;;;;;;;;5037127;28;20182;-66
2022/04/28 08:49:21;;;;;;;10.03;7.37;;;;;;;;;;5054932;28;20158;-66
2022/04/28 08:51:47;;;;;;;14.17;9.13;;;;;;;;;;5055442;28;20564;-67
2022/04/28 08:54:14;;;;;;;20.33;9.27;;;;;;;;;;5054935;28;20257;-66
2022/04/28 08:56:40;;;;;;;11.27;8.33;;;;;;;;;;5056113;28;20186;-65
2022/04/28 08:59:07;;;;;;;16.63;8.73;;;;;;;;;;5047363;28;20210;-65
2022/04/28 09:01:33;;;;;;;11.83;8.87;;;;;;;;;;5064749;28;20178;-65
2022/04/28 09:04:00;;;;;;;12.07;8.97;;;;;;;;;;5060064;28;20237;-66
2022/04/28 09:06:30;;;;;;;12.37;8.73;;;;;;;;;;5037608;28;20712;-65
2022/04/28 09:08:59;;;;;;;16.87;9.03;;;;;;;;;;5054564;28;20158;-65
2022/04/28 09:11:27;;;;;;;12.17;9.13;;;;;;;;;;5054576;28;20186;-66
2022/04/28 09:14:09;;;;;;;16.17;8.03;;;;;;;;;;5036590;28;20300;-66
2022/04/28 09:16:35;;;;;;;11.10;8.17;;;;;;;;;;5036321;28;20179;-66
2022/04/28 09:19:01;;;;;;;17.10;8.80;;;;;;;;;;5054873;28;20265;-65
2022/04/28 09:21:27;;;;;;;12.37;8.20;;;;;;;;;;5036669;28;20213;-67
2022/04/28 09:23:54;;;;;;;15.67;8.73;;;;;;;;;;5054081;28;20551;-65
2022/04/28 09:26:23;;;;;;;14.30;8.10;;;;;;;;;;5054255;28;20531;-66
2022/04/28 09:28:49;;;;;;;12.93;8.03;;;;;;;;;;5054527;28;20183;-64
2022/04/28 09:31:15;;;;;;;12.87;8.53;;;;;;;;;;5053931;28;20190;-66
2022/04/28 09:33:41;;;;;;;11.93;8.30;;;;;;;;;;5053917;28;20174;-66
2022/04/28 09:36:08;;;;;;;14.13;8.30;;;;;;;;;;5036117;28;20272;-66
2022/04/28 09:38:34;;;;;;;14.57;7.50;;;;;;;;;;5035797;28;20183;-65
2022/04/28 09:43:45;;;;;;;11.77;7.67;;;;;;;;;;5054361;28;20178;-66
2022/04/28 09:46:11;;;;;;;11.40;8.00;;;;;;;;;;5053741;28;20194;-66
2022/04/28 09:48:37;;;;;;;16.80;8.00;;;;;;;;;;5035814;28;20205;-67
2022/04/28 09:51:04;;;;;;;10.17;7.93;;;;;;;;;;5053508;28;20213;-67
2022/04/28 09:53:31;;;;;;;12.30;7.93;;;;;;;;;;5035693;28;20186;-66
2022/04/28 09:55:57;;;;;;;14.33;8.67;;;;;;;;;;5053935;28;20171;-66
2022/04/28 09:58:24;;;;;;;11.23;7.40;;;;;;;;;;5053798;28;20202;-66
2022/04/28 10:00:51;;;;;;;11.10;7.57;;;;;;;;;;5035661;28;20229;-67
2022/04/28 10:03:17;;;;;;;11.77;8.07;;;;;;;;;;5053724;28;20174;-66
2022/04/28 10:05:43;;;;;;;11.03;7.70;;;;;;;;;;5036087;28;20251;-67
2022/04/28 10:08:09;;;;;;;12.87;8.33;;;;;;;;;;5053791;28;20673;-67
2022/04/28 10:10:36;;;;;;;11.30;7.43;;;;;;;;;;5035753;28;20201;-66
2022/04/28 10:13:02;;;;;;;9.83;7.23;;;;;;;;;;5036018;28;20205;-67
2022/04/28 10:15:30;;;;;;;10.53;7.70;;;;;;;;;;5054603;28;20635;-67
2022/04/28 10:18:00;;;;;;;11.27;6.77;;;;;;;;;;5055120;28;20257;-66
2022/04/28 10:20:31;;;;;;;10.60;6.87;;;;;;;;;;5053292;28;20194;-66
2022/04/28 10:22:59;;;;;;;8.03;6.70;;;;;;;;;;5053850;28;20607;-66
2022/04/28 10:33:46;;;;;;;10.10;7.57;;;;;;;;;;5053223;28;20237;-66
2022/04/28 10:36:16;;;;;;;10.20;7.03;;;;;;;;;;5053670;28;20634;-66
2022/04/28 10:39:02;;;;;;;10.37;7.50;;;;;;;;;;5053099;28;20178;-66
2022/04/28 10:41:29;;;;;;;11.67;7.67;;;;;;;;;;5053298;28;20269;-66
2022/04/28 10:43:58;;;;;;;10.07;7.30;;;;;;;;;;5035077;28;20227;-66
2022/04/28 10:46:28;;;;;;;9.70;7.00;;;;;;;;;;5035156;28;20221;-64
2022/04/28 10:48:54;;;;;;;9.53;7.27;;;;;;;;;;5035297;28;20236;-66
2022/04/28 10:51:29;;;;;;;11.17;7.50;;;;;;;;;;5034894;28;20253;-66
2022/04/28 10:53:56;;;;;;;10.70;6.57;;;;;;;;;;5035046;28;20173;-66
2022/04/28 10:56:30;;;;;;;10.73;7.80;;;;;;;;;;5052724;28;20178;-66
2022/04/28 10:58:57;;;;;;;14.00;8.17;;;;;;;;;;5052871;28;20163;-66
2022/04/28 11:01:27;;;;;;;9.30;6.93;;;;;;;;;;5034861;28;20202;-66
2022/04/28 11:03:57;;;;;;;9.43;7.20;;;;;;;;;;5035008;28;20232;-66
2022/04/28 11:06:28;;;;;;;12.03;7.80;;;;;;;;;;5034945;28;20213;-66
2022/04/28 11:08:55;;;;;;;13.57;8.70;;;;;;;;;;5034888;28;20189;-66
2022/04/28 11:11:22;;;;;;;15.03;8.40;;;;;;;;;;5034840;28;20285;-67
2022/04/28 11:13:49;;;;;;;11.37;7.70;;;;;;;;;;5052911;28;20181;-67
2022/04/28 11:16:16;;;;;;;10.50;7.63;;;;;;;;;;5053046;28;20247;-64
2022/04/28 11:18:43;;;;;;;11.43;8.13;;;;;;;;;;5052672;28;20206;-66
2022/04/28 11:21:09;;;;;;;10.63;8.13;;;;;;;;;;5052864;28;20201;-65
2022/04/28 11:23:36;;;;;;;10.90;7.93;;;;;;;;;;5036881;28;20179;-66
2022/04/28 11:26:02;;;;;;;10.50;7.87;;;;;;;;;;5056171;28;20301;-66
2022/04/28 11:28:29;;;;;;;14.33;8.50;;;;;;;;;;5038269;28;20182;-66
2022/04/28 11:30:55;;;;;;;12.37;8.00;;;;;;;;;;5056185;28;20674;-67
2022/04/28 11:33:21;;;;;;;11.90;7.10;;;;;;;;;;5038343;28;20273;-67
2022/04/28 11:35:47;;;;;;;11.07;7.47;;;;;;;;;;5056342;28;20592;-66
2022/04/28 11:38:13;;;;;;;10.97;7.60;;;;;;;;;;5056412;28;20179;-66
2022/04/28 11:40:42;;;;;;;12.50;7.83;;;;;;;;;;5055999;28;20202;-64
2022/04/28 11:43:09;;;;;;;12.30;8.40;;;;;;;;;;5056027;28;20174;-64
2022/04/28 11:45:36;;;;;;;11.33;7.70;;;;;;;;;;5055867;28;20230;-64
2022/04/28 11:48:04;;;;;;;11.40;7.17;;;;;;;;;;5037932;28;20205;-64
2022/04/28 11:50:30;;;;;;;9.63;7.13;;;;;;;;;;5055572;28;20682;-64
2022/04/28 11:53:07;;;;;;;14.13;7.93;;;;;;;;;;5055784;28;20178;-66
2022/04/28 11:55:35;;;;;;;10.77;7.57;;;;;;;;;;5055813;28;20169;-66
2022/04/28 11:58:01;;;;;;;9.50;6.77;;;;;;;;;;5055660;28;20614;-64
2022/04/28 12:00:27;;;;;;;11.80;8.50;;;;;;;;;;5056029;28;20202;-63
2022/04/28 12:02:54;;;;;;;11.23;7.67;;;;;;;;;;5037651;28;20277;-63
2022/04/28 12:05:22;;;;;;;10.37;6.90;;;;;;;;;;5037621;28;20206;-64
2022/04/28 12:07:51;;;;;;;10.27;7.03;;;;;;;;;;5037595;28;20265;-63
2022/04/28 12:16:02;;;;;;;8.07;6.60;;;;;;;;;;5055696;28;20545;-63
2022/04/28 12:21:16;;;;;;;10.63;7.77;;;;;;;;;;5055480;28;20283;-64
2022/04/28 12:23:43;;;;;;;10.60;7.40;;;;;;;;;;5055167;28;20190;-64
2022/04/28 12:26:09;;;;;;;11.13;6.67;;;;;;;;;;5055389;28;20206;-64
2022/04/28 12:28:40;;;;;;;9.97;7.00;;;;;;;;;;5055472;28;20221;-65
2022/04/28 12:31:07;;;;;;;10.03;7.33;;;;;;;;;;5037725;28;20336;-66
2022/04/28 12:33:34;;;;;;;10.53;6.97;;;;;;;;;;5036805;28;20295;-64
2022/04/28 12:36:01;;;;;;;8.20;6.43;;;;;;;;;;5054764;28;20224;-64
2022/04/28 12:38:28;;;;;;;9.30;6.70;;;;;;;;;;5054872;28;20179;-64
2022/04/28 12:40:54;;;;;;;8.63;6.20;;;;;;;;;;5054883;28;20213;-64
2022/04/28 12:43:40;;;;;;;10.00;7.03;;;;;;;;;;5054842;28;20175;-64
2022/04/28 12:46:09;;;;;;;11.47;7.20;;;;;;;;;;5055186;28;20277;-64
2022/04/28 12:48:36;;;;;;;7.93;6.20;;;;;;;;;;5054703;28;20171;-64
2022/04/28 12:51:15;;;;;;;9.17;6.23;;;;;;;;;;5036601;28;20210;-63
2022/04/28 12:53:42;;;;;;;7.53;5.73;;;;;;;;;;5055969;28;20178;-64
2022/04/28 12:56:09;;;;;;;9.57;6.17;;;;;;;;;;5056360;28;20182;-64
2022/04/28 12:58:36;;;;;;;8.83;6.37;;;;;;;;;;5037403;28;20182;-64
2022/04/28 13:01:02;;;;;;;9.63;6.10;;;;;;;;;;5037507;28;20606;-63
2022/04/28 13:03:29;;;;;;;9.73;6.30;;;;;;;;;;5054765;28;20175;-65
2022/04/28 13:05:56;;;;;;;10.40;6.10;;;;;;;;;;5054389;28;20294;-65
2022/04/28 13:08:22;;;;;;;9.10;6.63;;;;;;;;;;5054694;28;20210;-64
2022/04/28 13:10:48;;;;;;;7.90;5.97;;;;;;;;;;5054279;28;20198;-64
2022/04/28 13:13:14;;;;;;;8.63;5.97;;;;;;;;;;5054514;28;20175;-64
2022/04/28 13:15:40;;;;;;;7.73;5.80;;;;;;;;;;5036321;28;20189;-64
2022/04/28 13:18:06;;;;;;;11.03;5.73;;;;;;;;;;5054170;28;20261;-64
2022/04/28 13:20:32;;;;;;;8.67;6.20;;;;;;;;;;5036340;28;20205;-64
2022/04/28 13:22:58;;;;;;;7.33;6.20;;;;;;;;;;5054116;28;20178;-64
2022/04/28 13:25:24;;;;;;;7.87;5.63;;;;;;;;;;5036166;28;20210;-64
2022/04/28 13:27:50;;;;;;;7.60;5.83;;;;;;;;;;5054302;28;20256;-64
2022/04/28 13:30:16;;;;;;;10.13;5.70;;;;;;;;;;5036031;28;20198;-64
2022/04/28 13:32:42;;;;;;;10.20;6.33;;;;;;;;;;5035978;28;20702;-64
2022/04/28 13:35:08;;;;;;;8.73;6.30;;;;;;;;;;5036070;28;20214;-64
2022/04/28 13:37:34;;;;;;;9.60;5.87;;;;;;;;;;5053877;28;20178;-64
2022/04/28 13:40:00;;;;;;;9.07;6.07;;;;;;;;;;5035867;28;20256;-64
2022/04/28 13:42:26;;;;;;;7.10;6.20;;;;;;;;;;5036552;28;20186;-64
2022/04/28 13:44:52;;;;;;;7.70;5.87;;;;;;;;;;5053827;28;20285;-63
2022/04/28 13:47:18;;;;;;;7.57;6.10;;;;;;;;;;5035670;28;20210;-63
2022/04/28 13:49:44;;;;;;;7.10;5.50;;;;;;;;;;5053598;28;20220;-64
2022/04/28 13:52:10;;;;;;;9.03;5.63;;;;;;;;;;5035858;28;20170;-64
2022/04/28 13:54:36;;;;;;;5.80;5.20;;;;;;;;;;5053492;28;20284;-64
2022/04/28 13:57:02;;;;;;;9.07;5.90;;;;;;;;;;5035744;28;20210;-64
2022/04/28 13:59:28;;;;;;;5.73;5.03;;;;;;;;;;5053443;28;20194;-63
2022/04/28 14:01:54;;;;;;;9.87;5.80;;;;;;;;;;5054180;28;20181;-64
2022/04/28 14:04:24;;;;;;;6.70;5.47;;;;;;;;;;5036274;28;20206;-64
2022/04/28 14:06:51;;;;;;;7.30;5.43;;;;;;;;;;5036739;28;20216;-64
2022/04/28 14:09:16;;;;;;;8.10;5.73;;;;;;;;;;5053470;28;20189;-64
2022/04/28 14:11:42;;;;;;;12.57;7.60;;;;;;;;;;5053538;28;20175;-66
2022/04/28 14:14:08;;;;;;;7.90;6.07;;;;;;;;;;5053540;28;20232;-64
2022/04/28 14:16:34;;;;;;;8.37;5.83;;;;;;;;;;5035543;28;20186;-65
2022/04/28 14:19:01;;;;;;;11.10;6.03;;;;;;;;;;5053608;28;20178;-64
2022/04/28 14:21:27;;;;;;;8.90;5.40;;;;;;;;;;5053347;28;20189;-64
2022/04/28 14:23:53;;;;;;;8.47;5.70;;;;;;;;;;5053371;28;20175;-64
2022/04/28 14:26:20;;;;;;;11.93;5.80;;;;;;;;;;5035311;28;20210;-64
2022/04/28 14:28:46;;;;;;;6.37;4.77;;;;;;;;;;5053335;28;20177;-64
2022/04/28 14:31:14;;;;;;;8.57;6.07;;;;;;;;;;5052996;28;20194;-64
2022/04/28 14:33:40;;;;;;;7.50;5.30;;;;;;;;;;5035125;28;20255;-64
2022/04/28 14:36:06;;;;;;;7.33;5.40;;;;;;;;;;5053046;28;20635;-64
2022/04/28 14:38:32;;;;;;;7.53;5.73;;;;;;;;;;5035099;28;20190;-64
2022/04/28 14:40:58;;;;;;;8.27;5.37;;;;;;;;;;5052821;28;20206;-64
2022/04/28 14:43:23;;;;;;;6.63;4.93;;;;;;;;;;5052929;28;20232;-64
2022/04/28 14:45:50;;;;;;;6.63;5.60;;;;;;;;;;5034930;28;20206;-64
2022/04/28 14:48:16;;;;;;;6.77;5.00;;;;;;;;;;5052908;28;20201;-64
2022/04/28 14:53:27;;;;;;;5.90;5.10;;;;;;;;;;5053192;28;20194;-63
2022/04/28 14:55:53;;;;;;;5.00;4.57;;;;;;;;;;5034972;28;20559;-64
2022/04/28 14:58:20;;;;;;;8.03;5.37;;;;;;;;;;5036939;28;20261;-64
2022/04/28 15:00:46;;;;;;;8.33;4.70;;;;;;;;;;5038777;28;20202;-64
2022/04/28 15:03:13;;;;;;;9.03;5.23;;;;;;;;;;5056638;28;20186;-64
2022/04/28 15:05:39;;;;;;;6.73;5.07;;;;;;;;;;5056489;28;20612;-64
2022/04/28 15:08:05;;;;;;;8.50;5.13;;;;;;;;;;5056731;28;20635;-64
2022/04/28 15:10:31;;;;;;;6.03;4.60;;;;;;;;;;5056485;28;20201;-63
2022/04/28 15:12:57;;;;;;;7.67;4.73;;;;;;;;;;5038516;28;20171;-64